createdAt,value
2019-04-20T00:01:01.691Z,102561.13
2019-04-20T00:03:40.108Z,102559.80
2019-04-20T00:06:09.172Z,102562.97
2019-04-20T00:08:42.746Z,102566.61
2019-04-20T00:11:24.854Z,102561.41
2019-04-20T00:13:59.336Z,102560.56
2019-04-20T00:16:21.277Z,102565.98
2019-04-20T00:18:56.590Z,102562.50
2019-04-20T00:21:43.121Z,102563.03
2019-04-20T00:24:22.841Z,102564.59
2019-04-20T00:29:39.367Z,102558.46
2019-04-20T00:32:06.331Z,102556.23
2019-04-20T00:34:35.064Z,102558.09
2019-04-20T00:37:05.216Z,102557.70
2019-04-20T00:39:36.225Z,102551.62
2019-04-20T00:42:13.322Z,102556.76
2019-04-20T00:44:45.840Z,102554.66
2019-04-20T00:47:32.292Z,102554.72
2019-04-20T00:50:08.142Z,102556.53
2019-04-20T00:52:32.824Z,102550.06
2019-04-20T00:54:58.085Z,102556.70
2019-04-20T00:57:38.040Z,102554.96
2019-04-20T01:00:21.598Z,102550.62
2019-04-20T01:02:53.279Z,102549.30
2019-04-20T01:05:29.902Z,102555.81
2019-04-20T01:07:56.983Z,102550.08
2019-04-20T01:10:37.085Z,102552.72
2019-04-20T01:13:08.013Z,102551.25
2019-04-20T01:15:46.254Z,102558.20
2019-04-20T01:18:10.774Z,102556.52
2019-04-20T01:20:43.084Z,102548.77
2019-04-20T01:23:20.762Z,102554.06
2019-04-20T01:25:56.839Z,102547.53
2019-04-20T01:28:37.570Z,102549.78
2019-04-20T01:31:06.744Z,102548.41
2019-04-20T01:33:42.457Z,102551.50
2019-04-20T01:36:20.223Z,102551.83
2019-04-20T01:38:52.242Z,102550.51
2019-04-20T01:41:09.671Z,102550.12
2019-04-20T01:43:43.630Z,102550.91
2019-04-20T01:46:19.898Z,102548.27
2019-04-20T01:48:48.686Z,102553.47
2019-04-20T01:51:26.400Z,102555.62
2019-04-20T01:54:13.506Z,102547.63
2019-04-20T01:56:43.439Z,102551.66
2019-04-20T01:59:20.153Z,102550.33
2019-04-20T02:01:55.643Z,102547.27
2019-04-20T02:04:40.952Z,102544.64
2019-04-20T02:07:12.008Z,102549.55
2019-04-20T02:09:51.374Z,102555.31
2019-04-20T02:12:22.336Z,102551.35
2019-04-20T02:14:57.179Z,102550.88
2019-04-20T02:17:31.912Z,102550.93
2019-04-20T02:20:19.840Z,102549.13
2019-04-20T02:22:46.566Z,102550.06
2019-04-20T02:25:09.946Z,102551.47
2019-04-20T02:27:48.747Z,102558.62
2019-04-20T02:30:47.550Z,102556.14
2019-04-20T02:36:04.118Z,102556.95
2019-04-20T02:39:05.739Z,102549.96
2019-04-20T02:41:17.765Z,102550.09
2019-04-20T02:44:04.412Z,102558.89
2019-04-20T02:46:22.497Z,102553.16
2019-04-20T02:49:01.310Z,102550.55
2019-04-20T02:54:13.097Z,102551.66
2019-04-20T02:56:41.340Z,102555.73
2019-04-20T02:59:42.312Z,102558.48
2019-04-20T03:01:30.950Z,102563.37
2019-04-20T03:03:51.145Z,102560.78
2019-04-20T03:06:30.463Z,102550.72
2019-04-20T03:09:22.530Z,102555.51
2019-04-20T03:11:59.774Z,102552.42
2019-04-20T03:14:19.091Z,102555.47
2019-04-20T03:16:56.476Z,102553.67
2019-04-20T03:19:25.696Z,102551.47
2019-04-20T03:22:09.731Z,102554.14
2019-04-20T03:24:45.450Z,102562.99
2019-04-20T03:27:07.987Z,102557.84
2019-04-20T03:29:56.236Z,102558.73
2019-04-20T03:35:12.231Z,102554.39
2019-04-20T03:37:44.110Z,102551.28
2019-04-20T03:40:04.317Z,102552.99
2019-04-20T03:42:24.957Z,102546.37
2019-04-20T03:45:03.403Z,102551.18
2019-04-20T03:47:38.389Z,102555.06
2019-04-20T03:50:31.021Z,102547.12
2019-04-20T03:53:02.782Z,102551.91
2019-04-20T03:55:37.053Z,102549.25
2019-04-20T03:58:15.334Z,102556.33
2019-04-20T04:00:50.477Z,102555.56
2019-04-20T04:04:05.378Z,102554.72
2019-04-20T04:06:12.890Z,102553.84
2019-04-20T04:08:39.523Z,102554.64
2019-04-20T04:11:26.078Z,102553.66
2019-04-20T04:13:41.923Z,102549.16
2019-04-20T04:16:17.315Z,102551.19
2019-04-20T04:18:59.174Z,102552.36
2019-04-20T04:21:41.166Z,102551.39
2019-04-20T04:24:09.460Z,102552.17
2019-04-20T04:26:45.614Z,102553.87
2019-04-20T04:29:27.220Z,102552.03
2019-04-20T04:32:03.666Z,102550.95
2019-04-20T04:34:31.039Z,102552.96
2019-04-20T04:37:03.465Z,102551.02
2019-04-20T04:39:35.400Z,102550.34
2019-04-20T04:42:16.931Z,102550.52
2019-04-20T04:44:34.337Z,102551.45
2019-04-20T04:47:01.085Z,102554.62
2019-04-20T04:49:35.075Z,102558.28
2019-04-20T04:52:10.246Z,102562.64
2019-04-20T04:54:46.213Z,102560.42
2019-04-20T04:57:09.547Z,102564.14
2019-04-20T04:59:42.567Z,102557.44
2019-04-20T05:02:14.255Z,102561.46
2019-04-20T05:05:15.374Z,102557.48
2019-04-20T05:07:46.654Z,102560.86
2019-04-20T05:10:05.579Z,102565.97
2019-04-20T05:12:38.845Z,102558.20
2019-04-20T05:15:21.226Z,102560.12
2019-04-20T05:18:06.801Z,102557.37
2019-04-20T05:20:47.234Z,102565.22
2019-04-20T05:23:30.643Z,102563.27
2019-04-20T05:26:14.232Z,102568.39
2019-04-20T05:28:42.123Z,102564.89
2019-04-20T05:31:05.000Z,102568.43
2019-04-20T05:34:02.360Z,102566.23
2019-04-20T05:36:29.594Z,102568.84
2019-04-20T05:39:17.697Z,102563.30
2019-04-20T05:41:38.420Z,102555.62
2019-04-20T05:44:09.915Z,102558.87
2019-04-20T05:46:50.449Z,102557.30
2019-04-20T05:49:23.063Z,102555.68
2019-04-20T05:51:54.412Z,102561.87
2019-04-20T05:54:36.360Z,102552.79
2019-04-20T05:57:10.311Z,102553.50
2019-04-20T05:59:45.330Z,102556.78
2019-04-20T06:02:11.326Z,102559.13
2019-04-20T06:04:58.389Z,102564.72
2019-04-20T06:07:22.796Z,102564.95
2019-04-20T06:09:54.530Z,102566.23
2019-04-20T06:12:30.001Z,102566.97
2019-04-20T06:14:53.792Z,102571.14
2019-04-20T06:17:40.051Z,102565.68
2019-04-20T06:20:16.902Z,102566.17
2019-04-20T06:22:48.349Z,102569.48
2019-04-20T06:25:39.103Z,102571.10
2019-04-20T06:27:59.615Z,102556.64
2019-04-20T06:30:27.341Z,102563.89
2019-04-20T06:34:19.342Z,102557.77
2019-04-20T06:36:43.117Z,102563.59
2019-04-20T06:39:17.456Z,102561.53
2019-04-20T06:42:05.813Z,102568.01
2019-04-20T06:44:22.839Z,102560.94
2019-04-20T06:46:58.754Z,102571.11
2019-04-20T06:49:29.157Z,102572.10
2019-04-20T06:51:59.400Z,102568.33
2019-04-20T06:54:39.439Z,102572.80
2019-04-20T06:57:18.397Z,102574.62
2019-04-20T06:59:46.002Z,102569.88
2019-04-20T07:02:24.582Z,102573.00
2019-04-20T07:04:57.863Z,102566.78
2019-04-20T07:07:32.107Z,102568.44
2019-04-20T07:12:43.658Z,102566.97
2019-04-20T07:15:17.479Z,102569.30
2019-04-20T07:20:39.706Z,102567.71
2019-04-20T07:23:21.338Z,102567.58
2019-04-20T07:25:42.310Z,102565.28
2019-04-20T07:28:23.858Z,102563.54
2019-04-20T07:30:53.942Z,102556.91
2019-04-20T07:33:27.010Z,102554.05
2019-04-20T07:35:56.016Z,102561.19
2019-04-20T07:41:17.555Z,102561.16
2019-04-20T07:43:57.439Z,102554.92
2019-04-20T07:46:34.813Z,102557.00
2019-04-20T07:48:56.432Z,102552.69
2019-04-20T07:51:14.515Z,102556.59
2019-04-20T07:53:59.496Z,102558.30
2019-04-20T07:56:37.065Z,102552.82
2019-04-20T07:58:55.281Z,102563.88
2019-04-20T08:02:01.198Z,102561.29
2019-04-20T08:04:36.798Z,102560.53
2019-04-20T08:06:58.472Z,102564.33
2019-04-20T08:09:35.021Z,102554.00
2019-04-20T08:12:29.362Z,102544.55
2019-04-20T08:15:05.077Z,102547.45
2019-04-20T08:17:46.751Z,102541.37
2019-04-20T08:20:10.790Z,102540.77
2019-04-20T08:22:53.124Z,102541.58
2019-04-20T08:25:23.982Z,102537.16
2019-04-20T08:28:01.522Z,102538.77
2019-04-20T08:31:05.118Z,102534.92
2019-04-20T08:33:54.938Z,102536.88
2019-04-20T08:36:30.007Z,102533.02
2019-04-20T08:39:16.930Z,102528.46
2019-04-20T08:41:24.909Z,102531.78
2019-04-20T08:44:23.834Z,102523.66
2019-04-20T08:46:54.806Z,102528.41
2019-04-20T08:49:22.084Z,102527.93
2019-04-20T08:51:56.842Z,102523.62
2019-04-20T08:54:21.641Z,102517.25
2019-04-20T08:56:41.492Z,102512.16
2019-04-20T08:59:09.685Z,102513.23
2019-04-20T09:01:42.646Z,102507.21
2019-04-20T09:04:22.244Z,102504.56
2019-04-20T09:07:02.681Z,102499.75
2019-04-20T09:09:49.951Z,102500.83
2019-04-20T09:12:16.742Z,102496.78
2019-04-20T09:14:30.265Z,102488.47
2019-04-20T09:17:30.150Z,102486.59
2019-04-20T09:20:04.152Z,102486.72
2019-04-20T09:22:40.547Z,102494.98
2019-04-20T09:25:43.035Z,102486.75
2019-04-20T09:27:48.791Z,102483.03
2019-04-20T09:30:27.867Z,102479.23
2019-04-20T09:33:20.741Z,102479.44
2019-04-20T09:35:43.141Z,102474.22
2019-04-20T09:38:14.463Z,102477.48
2019-04-20T09:40:51.401Z,102474.71
2019-04-20T09:43:10.973Z,102466.64
2019-04-20T09:45:53.705Z,102476.35
2019-04-20T09:48:32.035Z,102479.43
2019-04-20T09:51:19.199Z,102472.70
2019-04-20T09:53:45.471Z,102472.31
2019-04-20T09:56:19.342Z,102473.67
2019-04-20T09:59:09.827Z,102477.38
2019-04-20T10:01:31.252Z,102476.66
2019-04-20T10:03:54.765Z,102476.14
2019-04-20T10:06:30.709Z,102468.36
2019-04-20T10:09:03.847Z,102470.98
2019-04-20T10:11:37.381Z,102469.86
2019-04-20T10:14:10.400Z,102465.91
2019-04-20T10:16:44.030Z,102463.82
2019-04-20T10:19:20.660Z,102458.77
2019-04-20T10:21:50.643Z,102459.76
2019-04-20T10:24:26.351Z,102455.92
2019-04-20T10:26:58.754Z,102458.88
2019-04-20T10:29:33.595Z,102451.48
2019-04-20T10:32:10.157Z,102448.92
2019-04-20T10:34:39.287Z,102451.15
2019-04-20T10:37:13.480Z,102448.78
2019-04-20T10:39:46.799Z,102451.38
2019-04-20T10:42:18.665Z,102447.67
2019-04-20T10:44:55.159Z,102440.95
2019-04-20T10:47:25.430Z,102443.16
2019-04-20T10:50:00.861Z,102434.96
2019-04-20T10:52:33.968Z,102443.53
2019-04-20T10:55:08.369Z,102442.04
2019-04-20T10:57:41.646Z,102432.70
2019-04-20T11:00:15.588Z,102429.56
2019-04-20T11:02:49.646Z,102427.72
2019-04-20T11:05:22.880Z,102432.18
2019-04-20T11:07:55.118Z,102427.63
2019-04-20T11:10:46.138Z,102416.18
2019-04-20T11:13:05.378Z,102424.33
2019-04-20T11:15:38.735Z,102415.14
2019-04-20T11:18:11.330Z,102419.97
2019-04-20T11:20:45.653Z,102415.34
2019-04-20T11:23:20.334Z,102419.21
2019-04-20T11:25:58.049Z,102408.95
2019-04-20T11:28:30.290Z,102406.91
2019-04-20T11:31:02.064Z,102401.86
2019-04-20T11:33:34.245Z,102403.35
2019-04-20T11:36:07.428Z,102399.33
2019-04-20T11:38:40.662Z,102398.84
2019-04-20T11:41:18.927Z,102390.58
2019-04-20T11:43:47.175Z,102389.81
2019-04-20T11:46:20.720Z,102385.24
2019-04-20T11:48:55.208Z,102381.22
2019-04-20T11:51:31.755Z,102385.77
2019-04-20T11:54:06.092Z,102373.05
2019-04-20T11:56:43.938Z,102376.68
2019-04-20T11:59:16.683Z,102376.09
2019-04-20T12:02:14.340Z,102370.49
2019-04-20T12:05:10.249Z,102368.70
2019-04-20T12:07:27.129Z,102358.84
2019-04-20T12:10:09.034Z,102361.79
2019-04-20T12:12:42.104Z,102359.64
2019-04-20T12:15:10.694Z,102357.33
2019-04-20T12:17:43.876Z,102354.77
2019-04-20T12:20:16.760Z,102354.41
2019-04-20T12:22:50.445Z,102356.02
2019-04-20T12:25:23.707Z,102355.50
2019-04-20T12:27:59.923Z,102355.52
2019-04-20T12:30:30.530Z,102343.72
2019-04-20T12:33:03.852Z,102337.20
2019-04-20T12:35:38.261Z,102336.70
2019-04-20T12:38:10.503Z,102331.07
2019-04-20T12:40:42.443Z,102334.84
2019-04-20T12:43:15.138Z,102329.64
2019-04-20T12:45:47.684Z,102325.63
2019-04-20T12:48:21.706Z,102326.56
2019-04-20T12:50:53.479Z,102315.21
2019-04-20T12:53:26.419Z,102315.71
2019-04-20T12:55:58.821Z,102311.08
2019-04-20T12:58:30.681Z,102319.33
2019-04-20T13:01:02.622Z,102303.34
2019-04-20T13:03:35.230Z,102303.26
2019-04-20T13:06:08.388Z,102300.95
2019-04-20T13:08:47.602Z,102308.89
2019-04-20T13:11:20.395Z,102303.58
2019-04-20T13:14:22.203Z,102297.00
2019-04-20T13:16:55.266Z,102303.47
2019-04-20T13:19:29.054Z,102302.36
2019-04-20T13:22:01.244Z,102299.19
2019-04-20T13:24:33.086Z,102297.16
2019-04-20T13:27:04.912Z,102288.70
2019-04-20T13:29:38.164Z,102278.91
2019-04-20T13:32:10.095Z,102294.64
2019-04-20T13:34:42.325Z,102287.48
2019-04-20T13:37:15.904Z,102285.59
2019-04-20T13:39:49.047Z,102286.86
2019-04-20T13:42:24.754Z,102287.69
2019-04-20T13:44:54.935Z,102287.86
2019-04-20T13:47:28.161Z,102277.87
2019-04-20T13:50:01.098Z,102275.80
2019-04-20T13:52:33.216Z,102279.23
2019-04-20T13:55:08.723Z,102268.23
2019-04-20T13:57:42.864Z,102268.73
2019-04-20T14:00:31.635Z,102266.59
2019-04-20T14:03:18.327Z,102266.86
2019-04-20T14:05:53.308Z,102263.07
2019-04-20T14:08:29.268Z,102257.68
2019-04-20T14:11:07.322Z,102254.16
2019-04-20T14:13:43.476Z,102256.86
2019-04-20T14:16:18.946Z,102249.52
2019-04-20T14:18:51.725Z,102249.88
2019-04-20T14:21:27.914Z,102241.08
2019-04-20T14:24:01.713Z,102238.31
2019-04-20T14:26:36.068Z,102240.85
2019-04-20T14:29:10.355Z,102236.08
2019-04-20T14:31:48.368Z,102237.05
2019-04-20T14:34:20.675Z,102236.06
2019-04-20T14:36:55.108Z,102239.82
2019-04-20T14:39:32.193Z,102231.06
2019-04-20T14:42:04.634Z,102227.98
2019-04-20T14:44:37.484Z,102222.14
2019-04-20T14:47:09.784Z,102222.18
2019-04-20T14:49:42.910Z,102220.69
2019-04-20T14:52:15.504Z,102214.75
2019-04-20T14:54:47.726Z,102216.02
2019-04-20T14:57:19.581Z,102215.66
2019-04-20T14:59:54.303Z,102210.73
2019-04-20T15:02:30.149Z,102209.67
2019-04-20T15:05:07.427Z,102208.98
2019-04-20T15:07:40.711Z,102208.92
2019-04-20T15:10:13.123Z,102199.55
2019-04-20T15:12:50.881Z,102196.41
2019-04-20T15:15:18.785Z,102189.56
2019-04-20T15:17:53.497Z,102198.54
2019-04-20T15:20:25.624Z,102195.08
2019-04-20T15:22:59.508Z,102192.50
2019-04-20T15:25:31.706Z,102185.93
2019-04-20T15:28:08.294Z,102185.02
2019-04-20T15:30:40.770Z,102190.86
2019-04-20T15:33:18.966Z,102188.92
2019-04-20T15:35:52.402Z,102186.23
2019-04-20T15:38:24.980Z,102187.59
2019-04-20T15:40:59.440Z,102183.77
2019-04-20T15:43:33.219Z,102184.02
2019-04-20T15:46:07.489Z,102186.36
2019-04-20T15:48:39.867Z,102179.70
2019-04-20T15:51:17.127Z,102177.43
2019-04-20T15:53:57.687Z,102171.80
2019-04-20T15:56:35.567Z,102176.53
2019-04-20T15:59:08.470Z,102171.70
2019-04-20T16:01:45.070Z,102173.95
2019-04-20T16:04:37.572Z,102170.56
2019-04-20T16:07:08.436Z,102170.95
2019-04-20T16:09:42.163Z,102169.73
2019-04-20T16:12:15.198Z,102165.97
2019-04-20T16:14:51.265Z,102164.22
2019-04-20T16:17:36.374Z,102168.41
2019-04-20T16:20:06.435Z,102167.45
2019-04-20T16:22:34.744Z,102163.01
2019-04-20T16:25:27.613Z,102156.02
2019-04-20T16:27:59.422Z,102165.58
2019-04-20T16:30:31.811Z,102164.84
2019-04-20T16:33:06.164Z,102159.84
2019-04-20T16:35:40.606Z,102161.55
2019-04-20T16:38:12.538Z,102161.55
2019-04-20T16:40:44.467Z,102158.11
2019-04-20T16:43:24.593Z,102158.12
2019-04-20T16:45:50.963Z,102158.63
2019-04-20T16:48:24.085Z,102164.02
2019-04-20T16:50:56.473Z,102149.38
2019-04-20T16:53:28.791Z,102158.73
2019-04-20T16:56:01.166Z,102161.64
2019-04-20T16:58:34.123Z,102153.91
2019-04-20T17:01:07.687Z,102151.27
2019-04-20T17:03:50.236Z,102148.05
2019-04-20T17:06:13.845Z,102149.28
2019-04-20T17:08:48.318Z,102140.31
2019-04-20T17:11:25.709Z,102137.70
2019-04-20T17:13:59.924Z,102143.19
2019-04-20T17:16:31.668Z,102146.25
2019-04-20T17:19:05.973Z,102136.39
2019-04-20T17:21:44.532Z,102143.59
2019-04-20T17:24:17.887Z,102141.94
2019-04-20T17:27:05.748Z,102141.14
2019-04-20T17:29:56.678Z,102136.25
2019-04-20T17:32:31.603Z,102136.42
2019-04-20T17:35:18.132Z,102141.19
2019-04-20T17:37:45.084Z,102138.26
2019-04-20T17:40:44.262Z,102143.19
2019-04-20T17:43:07.527Z,102144.17
2019-04-20T17:45:42.142Z,102135.17
2019-04-20T17:48:18.887Z,102140.09
2019-04-20T17:51:07.762Z,102139.47
2019-04-20T17:53:37.210Z,102143.13
2019-04-20T17:56:05.288Z,102141.53
2019-04-20T17:58:41.325Z,102143.56
2019-04-20T18:01:41.279Z,102143.32
2019-04-20T18:04:43.006Z,102138.65
2019-04-20T18:06:58.917Z,102141.14
2019-04-20T18:09:38.651Z,102141.31
2019-04-20T18:11:56.325Z,102147.78
2019-04-20T18:14:43.086Z,102138.80
2019-04-20T18:17:17.854Z,102138.23
2019-04-20T18:19:45.028Z,102141.58
2019-04-20T18:22:19.578Z,102140.59
2019-04-20T18:25:14.724Z,102145.28
2019-04-20T18:27:41.206Z,102144.81
2019-04-20T18:30:15.526Z,102146.62
2019-04-20T18:32:37.834Z,102143.66
2019-04-20T18:35:24.598Z,102137.06
2019-04-20T18:38:00.896Z,102137.16
2019-04-20T18:40:37.228Z,102139.70
2019-04-20T18:43:09.354Z,102136.89
2019-04-20T18:45:58.304Z,102136.73
2019-04-20T18:48:33.493Z,102139.09
2019-04-20T18:50:47.402Z,102137.59
2019-04-20T18:53:28.648Z,102143.68
2019-04-20T18:55:56.035Z,102141.58
2019-04-20T18:58:25.204Z,102141.31
2019-04-20T19:01:01.632Z,102138.69
2019-04-20T19:03:40.326Z,102141.54
2019-04-20T19:06:09.042Z,102137.17
2019-04-20T19:08:46.907Z,102141.13
2019-04-20T19:11:19.749Z,102140.36
2019-04-20T19:13:51.210Z,102145.86
2019-04-20T19:16:34.848Z,102145.55
2019-04-20T19:19:16.359Z,102138.09
2019-04-20T19:21:35.292Z,102144.61
2019-04-20T19:24:12.166Z,102137.00
2019-04-20T19:26:48.153Z,102134.70
2019-04-20T19:29:23.155Z,102136.45
2019-04-20T19:32:08.825Z,102134.10
2019-04-20T19:34:36.527Z,102132.69
2019-04-20T19:37:10.102Z,102142.98
2019-04-20T19:39:47.070Z,102171.69
2019-04-20T19:42:19.525Z,102168.45
2019-04-20T19:44:51.797Z,102167.78
2019-04-20T19:47:34.845Z,102171.34
2019-04-20T19:50:00.270Z,102171.97
2019-04-20T19:52:44.814Z,102174.85
2019-04-20T19:55:10.516Z,102172.58
2019-04-20T19:57:42.202Z,102175.13
2019-04-20T19:59:59.814Z,102172.45
2019-04-20T20:02:31.950Z,102177.45
2019-04-20T20:05:08.835Z,102174.53
2019-04-20T20:07:42.622Z,102176.56
2019-04-20T20:10:12.993Z,102173.15
2019-04-20T20:12:52.773Z,102170.86
2019-04-20T20:15:26.404Z,102175.54
2019-04-20T20:18:11.241Z,102171.77
2019-04-20T20:20:47.346Z,102172.80
2019-04-20T20:23:02.461Z,102174.20
2019-04-20T20:25:41.071Z,102187.13
2019-04-20T20:28:19.096Z,102186.94
2019-04-20T20:30:58.170Z,102195.16
2019-04-20T20:33:35.096Z,102188.57
2019-04-20T20:35:58.630Z,102197.20
2019-04-20T20:38:31.676Z,102195.23
2019-04-20T20:41:07.778Z,102201.05
2019-04-20T20:43:45.736Z,102204.12
2019-04-20T20:46:16.296Z,102208.33
2019-04-20T20:49:03.461Z,102207.34
2019-04-20T20:51:34.610Z,102214.59
2019-04-20T20:53:59.298Z,102219.78
2019-04-20T20:56:24.045Z,102217.83
2019-04-20T20:59:00.836Z,102216.97
2019-04-20T21:01:28.189Z,102213.13
2019-04-20T21:03:58.529Z,102211.47
2019-04-20T21:06:32.774Z,102204.41
2019-04-20T21:09:08.160Z,102206.79
2019-04-20T21:11:42.284Z,102206.93
2019-04-20T21:14:19.932Z,102201.25
2019-04-20T21:16:57.526Z,102201.00
2019-04-20T21:19:35.294Z,102203.74
2019-04-20T21:22:03.230Z,102201.45
2019-04-20T21:24:30.369Z,102205.71
2019-04-20T21:27:07.882Z,102215.53
2019-04-20T21:29:44.436Z,102212.14
2019-04-20T21:32:15.984Z,102206.02
2019-04-20T21:34:51.772Z,102204.91
2019-04-20T21:37:22.435Z,102206.42
2019-04-20T21:39:59.013Z,102208.20
2019-04-20T21:42:28.530Z,102206.81
2019-04-20T21:45:09.509Z,102208.17
2019-04-20T21:47:36.489Z,102211.05
2019-04-20T21:50:27.114Z,102208.16
2019-04-20T21:52:48.519Z,102205.72
2019-04-20T21:55:18.242Z,102202.87
2019-04-20T21:57:54.962Z,102203.59
2019-04-20T22:00:37.577Z,102204.35
2019-04-20T22:03:11.339Z,102205.89
2019-04-20T22:05:42.308Z,102201.66
2019-04-20T22:08:17.482Z,102206.24
2019-04-20T22:10:47.363Z,102203.75
2019-04-20T22:13:25.462Z,102205.77
2019-04-20T22:15:59.530Z,102212.80
2019-04-20T22:18:27.160Z,102213.48
2019-04-20T22:21:12.309Z,102209.28
2019-04-20T22:23:50.357Z,102204.95
2019-04-20T22:26:18.749Z,102204.95
2019-04-20T22:28:40.382Z,102203.13
2019-04-20T22:31:13.893Z,102202.57
2019-04-20T22:33:47.322Z,102210.11
2019-04-20T22:36:20.199Z,102206.59
2019-04-20T22:39:09.637Z,102204.12
2019-04-20T22:41:52.463Z,102202.48
2019-04-20T22:44:21.374Z,102206.00
2019-04-20T22:46:52.265Z,102202.62
2019-04-20T22:49:39.961Z,102207.14
2019-04-20T22:52:11.831Z,102200.56
2019-04-20T22:54:51.851Z,102196.64
2019-04-20T22:57:21.616Z,102190.38
2019-04-20T22:59:51.880Z,102191.75
2019-04-20T23:02:13.494Z,102183.89
2019-04-20T23:04:46.648Z,102186.63
2019-04-20T23:07:18.945Z,102176.96
2019-04-20T23:09:54.529Z,102175.77
2019-04-20T23:12:26.960Z,102175.03
2019-04-20T23:14:58.563Z,102169.88
2019-04-20T23:17:37.264Z,102164.75
2019-04-20T23:20:13.298Z,102161.87
2019-04-20T23:22:43.927Z,102160.77
2019-04-20T23:25:13.461Z,102157.59
2019-04-20T23:27:45.810Z,102157.42
2019-04-20T23:30:23.659Z,102154.20
2019-04-20T23:32:51.784Z,102151.59
2019-04-20T23:35:26.624Z,102146.39
2019-04-20T23:38:02.931Z,102147.86
2019-04-20T23:40:31.929Z,102151.87
2019-04-20T23:43:17.729Z,102148.77
2019-04-20T23:45:52.920Z,102145.75
2019-04-20T23:48:38.973Z,102141.45
2019-04-20T23:51:34.695Z,102141.56
2019-04-20T23:53:54.009Z,102139.41
2019-04-20T23:56:17.454Z,102136.84
2019-04-20T23:58:51.826Z,102129.78
